MAPA DE AEROPUERTO

INFORMACIÓN METAR y TAF


Deprecated: The each() function is deprecated. This message will be suppressed on further calls in /home/customer/www/clickair-va.com/public_html/VAM/vam/helpers/get_metar.php on line 20
METAR FOR HETR
ADDS - METARS form results

(0353 UTC 25 May 2022)
Data provider http://aviationweather.gov/metar/data/
 
Forecast for: HETR (EL TOR , EG)
Text: TAF HETR 242300Z 2500/2606 36006G22KT CAVOK
Forecast period: 0000 UTC 25 May 2022 to 0600 UTC 26 May 2022
Forecast type: FROM: standard forecast or significant change
Winds: from the N (360 degrees) at 7 MPH (6 knots; 3.1 m/s)
gusting to 25 MPH (22 knots; 11.3 m/s)
Visibility: 6 or more miles (10+ km)
Ceiling: unknown
Clouds: missing
Weather: NSW  (no significant weather)